createdAt,value
2023-07-14T00:01:49.018Z,21.25
2023-07-14T00:04:20.920Z,21.02
2023-07-14T00:06:48.450Z,24.73
2023-07-14T00:09:26.824Z,22.73
2023-07-14T00:11:54.444Z,26.05
2023-07-14T00:14:22.414Z,31.55
2023-07-14T00:16:49.820Z,25.75
2023-07-14T00:19:19.143Z,28.73
2023-07-14T00:21:47.614Z,37.13
2023-07-14T00:24:17.683Z,37.92
2023-07-14T00:26:48.910Z,41.22
2023-07-14T00:29:25.225Z,38.92
2023-07-14T00:31:52.818Z,35.10
2023-07-14T00:34:19.984Z,42.72
2023-07-14T00:36:47.070Z,34.75
2023-07-14T00:39:14.148Z,39.13
2023-07-14T00:41:43.395Z,33.88
2023-07-14T00:44:15.656Z,46.50
2023-07-14T00:46:45.475Z,38.58
2023-07-14T00:49:38.132Z,40.42
2023-07-14T00:52:32.350Z,38.08
2023-07-14T00:54:59.926Z,53.13
2023-07-14T00:57:29.976Z,54.58
2023-07-14T01:00:01.061Z,59.35
2023-07-14T01:02:29.722Z,63.92
2023-07-14T01:05:05.016Z,59.17
2023-07-14T01:07:37.798Z,52.72
2023-07-14T01:10:07.293Z,33.40
2023-07-14T01:12:38.566Z,34.30
2023-07-14T01:15:08.598Z,24.40
2023-07-14T01:17:37.821Z,39.17
2023-07-14T01:20:11.196Z,61.67
2023-07-14T01:22:43.414Z,58.22
2023-07-14T01:25:16.021Z,46.15
2023-07-14T01:27:47.581Z,32.60
2023-07-14T01:30:16.837Z,32.47
2023-07-14T01:32:47.671Z,48.33
2023-07-14T01:35:17.740Z,26.83
2023-07-14T01:37:46.188Z,29.30
2023-07-14T01:40:19.682Z,29.98
2023-07-14T01:42:54.372Z,31.45
2023-07-14T01:45:23.869Z,27.70
2023-07-14T01:47:55.690Z,26.85
2023-07-14T01:50:38.892Z,26.23
2023-07-14T01:53:18.002Z,24.25
2023-07-14T01:55:48.294Z,22.02
2023-07-14T01:58:21.001Z,23.55
2023-07-14T02:00:51.165Z,26.05
2023-07-14T02:03:28.849Z,22.60
2023-07-14T02:05:56.663Z,24.92
2023-07-14T02:08:27.477Z,23.42
2023-07-14T02:10:54.782Z,29.08
2023-07-14T02:13:24.632Z,25.80
2023-07-14T02:15:54.070Z,27.92
2023-07-14T02:18:27.160Z,22.58
2023-07-14T02:20:56.970Z,26.27
2023-07-14T02:23:27.758Z,26.95
2023-07-14T02:26:07.002Z,21.75
2023-07-14T02:28:35.779Z,27.50
2023-07-14T02:31:40.245Z,21.88
2023-07-14T02:34:13.066Z,23.15
2023-07-14T02:36:55.457Z,23.52
2023-07-14T02:39:23.342Z,21.20
2023-07-14T02:41:54.882Z,28.08
2023-07-14T02:44:28.144Z,20.13
2023-07-14T02:46:58.593Z,28.67
2023-07-14T02:49:27.702Z,21.67
2023-07-14T02:51:56.422Z,24.48
2023-07-14T02:54:25.961Z,27.10
2023-07-14T02:56:53.527Z,23.42
2023-07-14T02:59:21.352Z,22.17
2023-07-14T03:01:48.855Z,19.40
2023-07-14T03:04:16.115Z,22.52
2023-07-14T03:06:44.608Z,27.90
2023-07-14T03:09:13.776Z,30.20
2023-07-14T03:11:40.940Z,26.77
2023-07-14T03:14:09.380Z,38.35
2023-07-14T03:16:37.324Z,29.85
2023-07-14T03:19:04.564Z,36.30
2023-07-14T03:21:31.674Z,34.40
2023-07-14T03:24:00.307Z,31.17
2023-07-14T03:26:27.728Z,34.25
2023-07-14T03:28:55.053Z,38.13
2023-07-14T03:31:22.208Z,26.13
2023-07-14T03:33:49.312Z,26.48
2023-07-14T03:36:21.487Z,22.95
2023-07-14T03:39:26.170Z,23.40
2023-07-14T03:41:55.473Z,22.48
2023-07-14T03:44:23.302Z,28.73
2023-07-14T03:46:50.724Z,23.50
2023-07-14T03:49:18.426Z,35.90
2023-07-14T03:51:45.858Z,29.33
2023-07-14T03:54:13.521Z,27.27
2023-07-14T03:56:41.984Z,26.75
2023-07-14T03:59:09.434Z,41.00
2023-07-14T04:01:38.850Z,41.42
2023-07-14T04:04:06.064Z,35.88
2023-07-14T04:06:33.394Z,33.20
2023-07-14T04:09:02.368Z,35.38
2023-07-14T04:11:34.448Z,34.05
2023-07-14T04:14:03.365Z,38.05
2023-07-14T04:16:30.935Z,36.45
2023-07-14T04:18:58.168Z,35.13
2023-07-14T04:21:26.180Z,30.38
2023-07-14T04:23:54.359Z,30.90
2023-07-14T04:26:22.072Z,33.22
2023-07-14T04:28:50.055Z,27.52
2023-07-14T04:31:19.130Z,29.38
2023-07-14T04:33:48.205Z,28.10
2023-07-14T04:36:16.493Z,27.83
2023-07-14T04:38:59.957Z,26.25
2023-07-14T04:41:27.273Z,28.33
2023-07-14T04:43:54.600Z,25.13
2023-07-14T04:46:21.793Z,25.73
2023-07-14T04:48:49.671Z,24.55
2023-07-14T04:51:16.735Z,23.20
2023-07-14T04:53:44.184Z,31.42
2023-07-14T04:56:11.651Z,19.40
2023-07-14T04:58:38.945Z,26.90
2023-07-14T05:01:06.141Z,15.23
2023-07-14T05:03:33.441Z,17.92
2023-07-14T05:06:00.840Z,15.30
2023-07-14T05:08:27.996Z,16.58
2023-07-14T05:10:55.154Z,23.33
2023-07-14T05:13:22.449Z,19.55
2023-07-14T05:15:49.837Z,12.75
2023-07-14T05:18:18.265Z,13.50
2023-07-14T05:20:45.584Z,11.63
2023-07-14T05:23:12.762Z,15.68
2023-07-14T05:25:40.317Z,20.23
2023-07-14T05:28:07.825Z,17.00
2023-07-14T05:30:35.245Z,19.13
2023-07-14T05:33:02.780Z,10.77
2023-07-14T05:35:29.979Z,16.27
2023-07-14T05:37:57.943Z,17.63
2023-07-14T05:40:25.372Z,20.35
2023-07-14T05:42:52.577Z,22.38
2023-07-14T05:45:19.777Z,14.27
2023-07-14T05:47:48.306Z,11.65
2023-07-14T05:50:16.711Z,9.10
2023-07-14T05:52:45.338Z,5.47
2023-07-14T05:55:12.752Z,13.98
2023-07-14T05:57:40.000Z,6.25
2023-07-14T06:00:14.679Z,10.73
2023-07-14T06:02:42.930Z,8.13
2023-07-14T06:05:10.917Z,10.48
2023-07-14T06:07:38.994Z,11.00
2023-07-14T06:10:06.942Z,25.35
2023-07-14T06:12:34.509Z,10.82
2023-07-14T06:15:02.437Z,15.63
2023-07-14T06:17:30.267Z,7.32
2023-07-14T06:19:57.362Z,15.30
2023-07-14T06:22:24.959Z,17.17
2023-07-14T06:24:52.776Z,14.25
2023-07-14T06:27:20.114Z,8.63
2023-07-14T06:29:47.308Z,16.05
2023-07-14T06:32:16.738Z,13.43
2023-07-14T06:34:44.878Z,16.77
2023-07-14T06:37:12.035Z,11.57
2023-07-14T06:39:39.204Z,13.80
2023-07-14T06:42:06.703Z,12.25
2023-07-14T06:44:33.863Z,24.30
2023-07-14T06:47:01.007Z,7.78
2023-07-14T06:49:29.375Z,16.23
2023-07-14T06:51:57.322Z,17.33
2023-07-14T06:54:24.745Z,15.13
2023-07-14T06:56:51.842Z,13.50
2023-07-14T06:59:18.958Z,13.48
2023-07-14T07:01:46.082Z,5.93
2023-07-14T07:04:13.193Z,9.50
2023-07-14T07:06:40.340Z,7.93
2023-07-14T07:09:07.847Z,9.75
2023-07-14T07:11:35.140Z,5.15
2023-07-14T07:14:02.390Z,9.02
2023-07-14T07:16:29.634Z,9.30
2023-07-14T07:18:57.948Z,4.75
2023-07-14T07:21:25.006Z,15.73
2023-07-14T07:23:52.241Z,10.15
2023-07-14T07:26:19.357Z,8.70
2023-07-14T07:28:47.494Z,17.80
2023-07-14T07:31:16.051Z,7.30
2023-07-14T07:33:44.045Z,6.40
2023-07-14T07:36:18.317Z,10.23
2023-07-14T07:38:47.878Z,6.97
2023-07-14T07:41:16.223Z,6.60
2023-07-14T07:43:44.557Z,11.13
2023-07-14T07:46:12.492Z,10.23
2023-07-14T07:48:40.996Z,6.20
2023-07-14T07:51:08.186Z,6.20
2023-07-14T07:53:35.887Z,8.25
2023-07-14T07:56:03.647Z,10.10
2023-07-14T07:58:31.771Z,7.20
2023-07-14T08:01:04.225Z,11.73
2023-07-14T08:03:32.634Z,7.43
2023-07-14T08:06:06.113Z,8.60
2023-07-14T08:08:34.568Z,9.77
2023-07-14T08:11:02.859Z,14.80
2023-07-14T08:13:31.107Z,10.05
2023-07-14T08:15:59.104Z,6.53
2023-07-14T08:18:27.218Z,9.35
2023-07-14T08:20:54.911Z,12.70
2023-07-14T08:23:26.140Z,11.63
2023-07-14T08:26:00.355Z,12.30
2023-07-14T08:28:28.732Z,9.52
2023-07-14T08:30:59.308Z,19.58
2023-07-14T08:33:26.882Z,10.05
2023-07-14T08:35:55.207Z,12.00
2023-07-14T08:38:23.526Z,12.40
2023-07-14T08:40:55.602Z,11.98
2023-07-14T08:43:29.594Z,17.27
2023-07-14T08:46:15.530Z,9.27
2023-07-14T08:48:54.139Z,7.07
2023-07-14T08:51:35.855Z,9.10
2023-07-14T08:54:24.093Z,10.02
2023-07-14T08:56:53.052Z,12.45
2023-07-14T08:59:47.177Z,8.10
2023-07-14T09:02:44.565Z,16.17
2023-07-14T09:05:29.889Z,11.60
2023-07-14T09:07:57.347Z,10.02
2023-07-14T09:10:51.216Z,11.30
2023-07-14T09:13:30.213Z,7.40
2023-07-14T09:15:58.013Z,9.85
2023-07-14T09:18:55.020Z,9.48
2023-07-14T09:21:32.210Z,16.95
2023-07-14T09:24:02.256Z,11.23
2023-07-14T09:26:39.803Z,11.02
2023-07-14T09:29:38.201Z,8.65
2023-07-14T09:32:54.978Z,12.48
2023-07-14T09:35:30.310Z,11.77
2023-07-14T09:38:15.313Z,12.02
2023-07-14T09:40:45.110Z,5.97
2023-07-14T09:43:12.927Z,14.55
2023-07-14T09:45:42.042Z,6.18
2023-07-14T09:48:21.375Z,19.55
2023-07-14T09:51:33.477Z,10.20
2023-07-14T09:54:03.228Z,10.23
2023-07-14T09:56:36.398Z,6.50
2023-07-14T09:59:07.328Z,10.02
2023-07-14T10:01:34.632Z,8.35
2023-07-14T10:04:16.033Z,5.18
2023-07-14T10:06:43.696Z,18.95
2023-07-14T10:09:13.034Z,10.05
2023-07-14T10:11:41.698Z,11.07
2023-07-14T10:14:18.270Z,7.05
2023-07-14T10:16:46.439Z,7.28
2023-07-14T10:19:17.009Z,11.50
2023-07-14T10:22:14.938Z,10.60
2023-07-14T10:24:47.635Z,8.38
2023-07-14T10:27:29.461Z,13.33
2023-07-14T10:29:59.374Z,10.05
2023-07-14T10:32:52.482Z,7.53
2023-07-14T10:35:21.386Z,7.70
2023-07-14T10:37:57.950Z,9.82
2023-07-14T10:40:28.770Z,7.32
2023-07-14T10:43:04.350Z,5.63
2023-07-14T10:45:35.713Z,7.40
2023-07-14T10:48:05.688Z,9.75
2023-07-14T10:50:44.689Z,7.97
2023-07-14T10:53:23.630Z,9.32
2023-07-14T10:55:53.765Z,10.70
2023-07-14T10:58:23.360Z,11.18
2023-07-14T11:01:03.397Z,11.77
2023-07-14T11:03:39.322Z,21.30
2023-07-14T11:06:38.051Z,6.55
2023-07-14T11:09:13.691Z,12.40
2023-07-14T11:11:52.473Z,14.15
2023-07-14T11:14:47.334Z,7.72
2023-07-14T11:17:29.596Z,13.07
2023-07-14T11:20:05.342Z,10.88
2023-07-14T11:23:00.215Z,12.90
2023-07-14T11:25:44.280Z,12.98
2023-07-14T11:28:45.231Z,15.98
2023-07-14T11:31:28.204Z,13.18
2023-07-14T11:34:14.748Z,7.50
2023-07-14T11:36:58.571Z,11.27
2023-07-14T11:39:35.134Z,10.27
2023-07-14T11:42:03.045Z,13.27
2023-07-14T11:44:30.589Z,9.73
2023-07-14T11:46:59.984Z,11.77
2023-07-14T11:49:35.873Z,9.98
2023-07-14T11:52:20.898Z,22.23
2023-07-14T11:55:31.236Z,8.98
2023-07-14T11:58:25.023Z,9.35
2023-07-14T12:01:02.059Z,6.30
2023-07-14T12:03:35.862Z,6.97
2023-07-14T12:09:05.845Z,13.93
2023-07-14T12:11:43.626Z,16.98
2023-07-14T12:14:32.056Z,9.82
2023-07-14T12:17:00.998Z,10.77
2023-07-14T12:19:35.128Z,12.02
2023-07-14T12:22:09.541Z,15.00
2023-07-14T12:24:44.356Z,16.35
2023-07-14T12:27:33.851Z,10.40
2023-07-14T12:30:23.458Z,18.10
2023-07-14T12:32:55.573Z,28.70
2023-07-14T12:35:26.305Z,15.43
2023-07-14T12:37:53.684Z,9.82
2023-07-14T12:40:25.669Z,13.40
2023-07-14T12:42:54.134Z,12.82
2023-07-14T12:45:22.121Z,12.07
2023-07-14T12:47:53.332Z,13.45
2023-07-14T12:50:27.730Z,12.02
2023-07-14T12:55:27.410Z,10.57
2023-07-14T12:57:54.586Z,8.63
2023-07-14T13:00:27.209Z,12.88
2023-07-14T13:02:56.170Z,7.85
2023-07-14T13:05:30.069Z,8.98
2023-07-14T13:07:57.307Z,11.00
2023-07-14T13:10:32.641Z,8.80
2023-07-14T13:12:59.627Z,9.50
2023-07-14T13:15:29.687Z,11.48
2023-07-14T13:18:04.673Z,18.23
2023-07-14T13:20:39.731Z,8.30
2023-07-14T13:23:21.267Z,19.83
2023-07-14T13:26:06.593Z,13.40
2023-07-14T13:28:55.456Z,14.15
2023-07-14T13:31:28.636Z,13.27
2023-07-14T13:33:59.074Z,15.02
2023-07-14T13:36:28.776Z,13.60
2023-07-14T13:38:57.012Z,14.75
2023-07-14T13:41:29.108Z,15.52
2023-07-14T13:44:31.091Z,6.07
2023-07-14T13:47:22.433Z,16.42
2023-07-14T13:49:52.425Z,11.30
2023-07-14T13:52:22.277Z,12.68
2023-07-14T13:54:55.398Z,9.20
2023-07-14T13:57:23.030Z,13.20
2023-07-14T13:59:50.005Z,14.27
2023-07-14T14:02:36.608Z,10.30
2023-07-14T14:05:07.604Z,13.48
2023-07-14T14:07:35.144Z,9.43
2023-07-14T14:10:02.747Z,18.38
2023-07-14T14:12:29.891Z,7.07
2023-07-14T14:14:57.030Z,14.93
2023-07-14T14:17:45.678Z,11.73
2023-07-14T14:20:24.690Z,11.43
2023-07-14T14:22:54.011Z,9.55
2023-07-14T14:25:24.446Z,9.65
2023-07-14T14:27:53.286Z,11.70
2023-07-14T14:30:22.917Z,9.65
2023-07-14T14:32:50.054Z,9.25
2023-07-14T14:35:33.258Z,10.13
2023-07-14T14:38:06.455Z,7.28
2023-07-14T14:40:36.161Z,9.40
2023-07-14T14:43:26.878Z,9.82
2023-07-14T14:45:55.959Z,9.90
2023-07-14T14:48:39.284Z,7.45
2023-07-14T14:51:12.902Z,14.20
2023-07-14T14:53:40.336Z,11.68
2023-07-14T14:56:13.648Z,7.82
2023-07-14T14:58:41.003Z,11.07
2023-07-14T15:01:18.587Z,11.13
2023-07-14T15:03:46.224Z,18.45
2023-07-14T15:06:13.736Z,11.68
2023-07-14T15:08:40.911Z,6.78
2023-07-14T15:11:11.329Z,8.95
2023-07-14T15:13:38.593Z,12.00
2023-07-14T15:16:06.419Z,10.85
2023-07-14T15:18:33.659Z,11.65
2023-07-14T15:21:00.885Z,7.25
2023-07-14T15:23:27.915Z,9.48
2023-07-14T15:25:57.345Z,12.63
2023-07-14T15:28:26.927Z,11.65
2023-07-14T15:30:55.350Z,10.60
2023-07-14T15:33:22.526Z,7.88
2023-07-14T15:35:57.987Z,11.20
2023-07-14T15:38:25.418Z,12.85
2023-07-14T15:40:52.699Z,10.25
2023-07-14T15:43:19.892Z,6.28
2023-07-14T15:45:51.637Z,13.23
2023-07-14T15:48:41.084Z,9.15
2023-07-14T15:51:21.841Z,8.40
2023-07-14T15:53:50.175Z,14.55
2023-07-14T15:56:24.400Z,9.68
2023-07-14T15:58:51.509Z,9.65
2023-07-14T16:01:28.594Z,16.90
2023-07-14T16:04:00.281Z,8.93
2023-07-14T16:06:27.538Z,10.75
2023-07-14T16:08:56.759Z,7.85
2023-07-14T16:11:38.569Z,15.60
2023-07-14T16:14:08.997Z,9.57
2023-07-14T16:16:36.461Z,8.55
2023-07-14T16:19:03.576Z,11.35
2023-07-14T16:21:35.859Z,13.05
2023-07-14T16:24:03.924Z,12.15
2023-07-14T16:26:31.548Z,8.23
2023-07-14T16:28:58.717Z,13.27
2023-07-14T16:31:26.698Z,12.85
2023-07-14T16:33:53.925Z,10.38
2023-07-14T16:36:28.309Z,14.10
2023-07-14T16:39:02.627Z,8.40
2023-07-14T16:41:31.469Z,15.68
2023-07-14T16:43:58.735Z,12.00
2023-07-14T16:46:32.295Z,13.82
2023-07-14T16:48:59.877Z,13.70
2023-07-14T16:51:29.139Z,14.30
2023-07-14T16:53:57.510Z,9.13
2023-07-14T16:56:24.760Z,8.88
2023-07-14T16:58:51.898Z,15.77
2023-07-14T17:01:21.727Z,12.52
2023-07-14T17:03:49.085Z,12.77
2023-07-14T17:06:16.707Z,21.05
2023-07-14T17:08:44.836Z,12.05
2023-07-14T17:11:14.540Z,11.15
2023-07-14T17:13:43.630Z,16.08
2023-07-14T17:16:12.250Z,14.68
2023-07-14T17:18:41.197Z,15.70
2023-07-14T17:21:10.384Z,15.07
2023-07-14T17:23:39.232Z,15.63
2023-07-14T17:26:06.976Z,11.95
2023-07-14T17:28:34.368Z,14.18
2023-07-14T17:31:02.531Z,12.80
2023-07-14T17:33:30.845Z,15.52
2023-07-14T17:36:01.682Z,15.23
2023-07-14T17:38:31.109Z,17.92
2023-07-14T17:40:58.361Z,15.95
2023-07-14T17:43:25.440Z,14.82
2023-07-14T17:45:52.504Z,13.93
2023-07-14T17:48:19.608Z,15.20
2023-07-14T17:50:55.585Z,13.15
2023-07-14T17:53:25.048Z,14.65
2023-07-14T17:55:52.974Z,15.45
2023-07-14T17:58:23.179Z,17.02
2023-07-14T18:00:50.554Z,15.23
2023-07-14T18:03:36.078Z,14.35
2023-07-14T18:06:03.291Z,14.05
2023-07-14T18:08:30.715Z,18.65
2023-07-14T18:11:02.816Z,14.90
2023-07-14T18:13:40.338Z,15.85
2023-07-14T18:16:11.890Z,15.77
2023-07-14T18:18:40.404Z,13.10
2023-07-14T18:21:12.307Z,13.20
2023-07-14T18:23:39.896Z,16.25
2023-07-14T18:26:07.168Z,18.90
2023-07-14T18:28:34.522Z,16.63
2023-07-14T18:31:02.432Z,15.15
2023-07-14T18:33:32.542Z,21.33
2023-07-14T18:35:59.713Z,19.75
2023-07-14T18:38:28.316Z,15.73
2023-07-14T18:40:58.641Z,16.33
2023-07-14T18:43:35.054Z,13.23
2023-07-14T18:46:03.979Z,23.63
2023-07-14T18:48:32.269Z,18.45
2023-07-14T18:51:14.103Z,17.55
2023-07-14T18:53:41.481Z,18.17
2023-07-14T18:56:10.241Z,14.73
2023-07-14T18:58:38.347Z,20.33
2023-07-14T19:01:08.422Z,15.85
2023-07-14T19:03:37.971Z,14.98
2023-07-14T19:06:07.427Z,17.60
2023-07-14T19:08:35.008Z,20.25
2023-07-14T19:11:13.494Z,19.80
2023-07-14T19:13:41.113Z,16.25
2023-07-14T19:16:18.176Z,19.48
2023-07-14T19:18:46.057Z,19.48
2023-07-14T19:21:16.210Z,16.75
2023-07-14T19:23:43.322Z,19.10
2023-07-14T19:26:11.716Z,14.65
2023-07-14T19:28:38.727Z,19.27
2023-07-14T19:31:17.036Z,21.23
2023-07-14T19:33:44.213Z,18.52
2023-07-14T19:36:11.244Z,20.20
2023-07-14T19:38:38.311Z,16.63
2023-07-14T19:41:06.454Z,17.17
2023-07-14T19:43:34.008Z,18.80
2023-07-14T19:46:02.562Z,25.73
2023-07-14T19:48:29.611Z,17.65
2023-07-14T19:50:58.195Z,16.15
2023-07-14T19:53:27.364Z,16.00
2023-07-14T19:55:55.413Z,15.93
2023-07-14T19:58:23.485Z,16.73
2023-07-14T20:00:52.184Z,12.95
2023-07-14T20:03:29.690Z,11.82
2023-07-14T20:05:57.647Z,12.48
2023-07-14T20:08:30.325Z,18.83
2023-07-14T20:11:00.844Z,15.80
2023-07-14T20:13:30.136Z,21.70
2023-07-14T20:16:00.120Z,13.82
2023-07-14T20:18:31.659Z,19.83
2023-07-14T20:20:59.719Z,16.50
2023-07-14T20:23:32.625Z,18.88
2023-07-14T20:26:01.109Z,17.40
2023-07-14T20:28:37.575Z,16.65
2023-07-14T20:31:13.553Z,20.23
2023-07-14T20:33:41.539Z,21.10
2023-07-14T20:36:14.957Z,12.20
2023-07-14T20:38:44.138Z,12.32
2023-07-14T20:41:28.061Z,15.10
2023-07-14T20:43:55.197Z,14.55
2023-07-14T20:46:25.125Z,11.70
2023-07-14T20:49:06.512Z,19.63
2023-07-14T20:51:39.947Z,17.20
2023-07-14T20:54:07.874Z,19.25
2023-07-14T20:56:34.975Z,15.60
2023-07-14T20:59:02.183Z,15.95
2023-07-14T21:01:32.402Z,15.02
2023-07-14T21:04:05.646Z,12.77
2023-07-14T21:06:32.661Z,14.50
2023-07-14T21:08:59.870Z,17.73
2023-07-14T21:11:29.752Z,16.35
2023-07-14T21:14:00.635Z,18.50
2023-07-14T21:16:30.205Z,21.98
2023-07-14T21:18:58.205Z,20.15
2023-07-14T21:21:31.998Z,19.25
2023-07-14T21:24:00.743Z,22.03
2023-07-14T21:26:29.650Z,18.42
2023-07-14T21:28:59.651Z,15.68
2023-07-14T21:31:33.674Z,19.23
2023-07-14T21:34:01.908Z,14.65
2023-07-14T21:36:29.226Z,14.13
2023-07-14T21:38:59.800Z,14.60
2023-07-14T21:41:27.089Z,11.35
2023-07-14T21:43:56.503Z,15.50
2023-07-14T21:46:24.560Z,15.05
2023-07-14T21:48:51.626Z,14.60
2023-07-14T21:51:27.207Z,13.43
2023-07-14T21:53:55.908Z,14.80
2023-07-14T21:56:23.692Z,16.52
2023-07-14T21:58:50.699Z,13.70
2023-07-14T22:01:36.150Z,19.83
2023-07-14T22:04:14.144Z,19.23
2023-07-14T22:06:41.235Z,16.50
2023-07-14T22:09:08.359Z,15.38
2023-07-14T22:11:35.457Z,16.73
2023-07-14T22:14:02.900Z,18.55
2023-07-14T22:16:30.493Z,13.88
2023-07-14T22:18:57.580Z,11.10
2023-07-14T22:21:28.726Z,17.83
2023-07-14T22:23:55.805Z,11.90
2023-07-14T22:26:24.814Z,15.35
2023-07-14T22:28:52.316Z,28.70
2023-07-14T22:31:23.450Z,16.67
2023-07-14T22:33:51.061Z,18.50
2023-07-14T22:36:18.923Z,13.60
2023-07-14T22:38:46.070Z,22.05
2023-07-14T22:41:29.525Z,16.65
2023-07-14T22:44:01.977Z,16.20
2023-07-14T22:46:29.310Z,14.63
2023-07-14T22:48:56.589Z,12.13
2023-07-14T22:51:27.274Z,13.48
2023-07-14T22:53:55.695Z,24.25
2023-07-14T22:56:23.308Z,18.17
2023-07-14T22:58:50.380Z,16.23
2023-07-14T23:01:29.391Z,15.02
2023-07-14T23:03:57.312Z,18.63
2023-07-14T23:06:25.275Z,13.50
2023-07-14T23:08:55.587Z,14.00
2023-07-14T23:11:29.655Z,13.00
2023-07-14T23:13:56.802Z,10.10
2023-07-14T23:16:25.446Z,13.35
2023-07-14T23:18:53.211Z,15.30
2023-07-14T23:21:32.261Z,18.58
2023-07-14T23:24:01.603Z,13.38
2023-07-14T23:26:30.867Z,6.47
2023-07-14T23:28:58.236Z,17.08
2023-07-14T23:31:32.403Z,14.52
2023-07-14T23:33:59.695Z,12.13
2023-07-14T23:36:27.652Z,11.15
2023-07-14T23:38:54.942Z,11.02
2023-07-14T23:41:22.030Z,11.05
2023-07-14T23:43:49.508Z,13.13
2023-07-14T23:46:16.889Z,16.73
2023-07-14T23:48:44.292Z,12.50
2023-07-14T23:51:30.828Z,10.80
2023-07-14T23:54:00.083Z,11.70
2023-07-14T23:56:29.415Z,9.43
2023-07-14T23:58:56.575Z,9.82
